createdAt,value
2023-01-28T00:01:38.850Z,16.85
2023-01-28T00:04:09.380Z,32.30
2023-01-28T00:06:41.706Z,33.60
2023-01-28T00:09:12.127Z,29.52
2023-01-28T00:11:43.419Z,35.83
2023-01-28T00:14:14.934Z,33.20
2023-01-28T00:16:45.440Z,15.82
2023-01-28T00:19:15.863Z,6.10
2023-01-28T00:21:47.921Z,5.28
2023-01-28T00:24:18.336Z,3.22
2023-01-28T00:26:48.755Z,4.07
2023-01-28T00:29:19.286Z,2.70
2023-01-28T00:31:49.721Z,4.05
2023-01-28T00:34:21.067Z,5.75
2023-01-28T00:36:58.509Z,4.55
2023-01-28T00:39:29.484Z,7.53
2023-01-28T00:42:00.349Z,8.65
2023-01-28T00:44:30.735Z,7.63
2023-01-28T00:47:01.852Z,9.13
2023-01-28T00:49:32.354Z,61.95
2023-01-28T00:52:04.798Z,65.22
2023-01-28T00:54:35.263Z,49.83
2023-01-28T00:57:05.651Z,75.03
2023-01-28T00:59:36.146Z,57.35
2023-01-28T01:02:14.486Z,48.72
2023-01-28T01:04:55.648Z,25.67
2023-01-28T01:07:35.696Z,13.60
2023-01-28T01:12:35.939Z,19.17
2023-01-28T01:15:09.673Z,8.02
2023-01-28T01:17:40.830Z,3.70
2023-01-28T01:20:15.345Z,7.18
2023-01-28T01:22:47.609Z,3.60
2023-01-28T01:25:19.706Z,2.90
2023-01-28T01:27:52.556Z,9.23
2023-01-28T01:30:23.383Z,3.58
2023-01-28T01:32:53.900Z,3.40
2023-01-28T01:35:24.356Z,4.38
2023-01-28T01:37:56.467Z,6.18
2023-01-28T01:40:26.961Z,2.60
2023-01-28T01:42:57.365Z,3.63
2023-01-28T01:45:29.455Z,4.13
2023-01-28T01:48:04.951Z,2.88
2023-01-28T01:50:39.113Z,6.10
2023-01-28T01:53:15.546Z,2.70
2023-01-28T01:55:51.045Z,4.25
2023-01-28T01:58:26.659Z,4.28
2023-01-28T02:00:57.402Z,4.13
2023-01-28T02:03:34.570Z,6.88
2023-01-28T02:06:05.496Z,4.07
2023-01-28T02:08:37.722Z,4.20
2023-01-28T02:11:11.394Z,6.30
2023-01-28T02:13:47.451Z,2.30
2023-01-28T02:16:18.182Z,2.50
2023-01-28T02:18:48.802Z,3.15
2023-01-28T02:21:57.032Z,2.47
2023-01-28T02:24:56.607Z,3.75
2023-01-28T02:27:39.743Z,4.07
2023-01-28T02:30:18.559Z,7.32
2023-01-28T02:32:55.961Z,4.32
2023-01-28T02:35:36.326Z,10.82
2023-01-28T02:38:12.547Z,3.40
2023-01-28T02:41:02.075Z,4.35
2023-01-28T02:43:37.086Z,3.05
2023-01-28T02:46:33.958Z,5.07
2023-01-28T02:49:05.160Z,5.72
2023-01-28T02:52:05.927Z,3.20
2023-01-28T02:54:43.401Z,3.45
2023-01-28T02:57:24.097Z,4.63
2023-01-28T03:00:04.451Z,4.57
2023-01-28T03:02:39.876Z,6.63
2023-01-28T03:05:17.404Z,2.75
2023-01-28T03:07:48.042Z,3.08
2023-01-28T03:10:21.428Z,2.67
2023-01-28T03:13:11.449Z,5.47
2023-01-28T03:18:52.237Z,2.00
2023-01-28T03:21:44.576Z,3.95
2023-01-28T03:24:37.194Z,4.68
2023-01-28T03:27:30.341Z,5.72
2023-01-28T03:30:21.342Z,3.03
2023-01-28T03:33:09.683Z,3.65
2023-01-28T03:35:59.982Z,3.38
2023-01-28T03:38:43.140Z,3.15
2023-01-28T03:41:14.826Z,3.85
2023-01-28T03:43:46.282Z,3.88
2023-01-28T03:46:16.984Z,5.55
2023-01-28T03:48:47.920Z,6.30
2023-01-28T03:51:20.060Z,3.80
2023-01-28T03:53:50.543Z,3.15
2023-01-28T03:56:25.391Z,4.05
2023-01-28T03:58:58.069Z,2.35
2023-01-28T04:01:31.345Z,3.10
2023-01-28T04:04:02.335Z,4.75
2023-01-28T04:06:34.381Z,2.80
2023-01-28T04:09:06.811Z,2.92
2023-01-28T04:11:46.686Z,2.75
2023-01-28T04:14:17.142Z,5.68
2023-01-28T04:16:47.757Z,2.75
2023-01-28T04:19:18.985Z,3.70
2023-01-28T04:21:51.419Z,5.72
2023-01-28T04:24:24.228Z,2.50
2023-01-28T04:26:56.404Z,3.92
2023-01-28T04:29:27.222Z,3.67
2023-01-28T04:31:57.810Z,3.70
2023-01-28T04:34:28.328Z,2.97
2023-01-28T04:37:00.325Z,2.53
2023-01-28T04:39:30.851Z,3.38
2023-01-28T04:42:02.761Z,2.65
2023-01-28T04:44:33.200Z,4.65
2023-01-28T04:47:03.580Z,6.50
2023-01-28T04:49:34.155Z,3.65
2023-01-28T04:52:06.236Z,4.75
2023-01-28T04:54:37.185Z,2.92
2023-01-28T04:57:07.775Z,3.58
2023-01-28T04:59:38.205Z,3.35
2023-01-28T05:02:08.697Z,2.20
2023-01-28T05:04:39.219Z,4.13
2023-01-28T05:07:11.292Z,3.58
2023-01-28T05:09:41.884Z,3.75
2023-01-28T05:12:12.449Z,4.18
2023-01-28T05:14:42.974Z,4.32
2023-01-28T05:17:13.375Z,3.78
2023-01-28T05:19:51.356Z,3.78
2023-01-28T05:22:29.960Z,3.13
2023-01-28T05:25:09.825Z,2.90
2023-01-28T05:27:45.863Z,3.88
2023-01-28T05:30:22.953Z,4.82
2023-01-28T05:33:04.722Z,3.70
2023-01-28T05:35:38.027Z,6.13
2023-01-28T05:38:15.319Z,2.90
2023-01-28T05:40:47.314Z,5.05
2023-01-28T05:43:18.880Z,6.28
2023-01-28T05:45:52.960Z,5.32
2023-01-28T05:48:26.184Z,4.45
2023-01-28T05:50:58.331Z,4.57
2023-01-28T05:53:34.392Z,3.90
2023-01-28T05:56:07.247Z,3.72
2023-01-28T05:58:41.194Z,4.68
2023-01-28T06:01:13.450Z,80.70
2023-01-28T06:03:45.778Z,10.93
2023-01-28T06:06:18.480Z,80.45
2023-01-28T06:08:53.452Z,20.00
2023-01-28T06:11:26.587Z,47.50
2023-01-28T06:13:59.490Z,16.65
2023-01-28T06:16:33.087Z,7.68
2023-01-28T06:19:06.823Z,19.15
2023-01-28T06:21:45.007Z,5.38
2023-01-28T06:24:19.668Z,3.65
2023-01-28T06:26:53.531Z,13.90
2023-01-28T06:29:29.498Z,7.25
2023-01-28T06:32:04.493Z,8.07
2023-01-28T06:34:39.246Z,7.07
2023-01-28T06:37:14.575Z,7.38
2023-01-28T06:39:50.402Z,5.60
2023-01-28T06:42:26.887Z,8.18
2023-01-28T06:45:01.692Z,19.15
2023-01-28T06:47:36.507Z,8.40
2023-01-28T06:50:48.295Z,7.30
2023-01-28T06:53:30.400Z,12.02
2023-01-28T06:56:47.940Z,6.53
2023-01-28T06:59:25.400Z,7.60
2023-01-28T07:02:03.588Z,10.95
2023-01-28T07:04:45.640Z,8.45
2023-01-28T07:07:23.904Z,12.25
2023-01-28T07:10:01.943Z,18.63
2023-01-28T07:12:40.113Z,21.35
2023-01-28T07:15:19.705Z,27.45
2023-01-28T07:17:59.576Z,22.63
2023-01-28T07:23:07.972Z,20.95
2023-01-28T07:25:41.915Z,26.60
2023-01-28T07:28:23.860Z,29.65
2023-01-28T07:30:56.266Z,20.98
2023-01-28T07:33:29.868Z,22.80
2023-01-28T07:36:02.778Z,24.05
2023-01-28T07:38:35.477Z,33.90
2023-01-28T07:41:08.453Z,34.22
2023-01-28T07:43:43.501Z,78.68
2023-01-28T07:46:17.226Z,28.35
2023-01-28T07:48:50.682Z,39.70
2023-01-28T07:51:24.418Z,23.70
2023-01-28T07:53:57.283Z,36.13
2023-01-28T07:56:33.355Z,64.85
2023-01-28T07:59:09.337Z,52.38
2023-01-28T08:10:19.440Z,20.17
2023-01-28T08:12:57.179Z,27.58
2023-01-28T08:15:30.010Z,27.80
2023-01-28T08:18:05.097Z,40.55
2023-01-28T08:20:40.078Z,40.53
2023-01-28T08:23:16.801Z,11.30
2023-01-28T08:25:50.428Z,11.90
2023-01-28T08:28:24.161Z,11.60
2023-01-28T08:31:06.255Z,10.30
2023-01-28T08:33:40.471Z,19.13
2023-01-28T08:36:15.700Z,14.93
2023-01-28T08:38:56.631Z,8.93
2023-01-28T08:41:29.923Z,9.25
2023-01-28T08:44:03.399Z,5.00
2023-01-28T08:46:39.777Z,5.88
2023-01-28T08:49:13.785Z,4.90
2023-01-28T08:51:46.327Z,5.10
2023-01-28T08:54:19.832Z,10.35
2023-01-28T08:56:54.571Z,9.57
2023-01-28T08:59:29.630Z,4.32
2023-01-28T09:02:06.395Z,4.40
2023-01-28T09:04:41.932Z,3.80
2023-01-28T09:07:15.045Z,3.97
2023-01-28T09:09:47.679Z,5.78
2023-01-28T09:12:20.625Z,14.95
2023-01-28T09:14:54.066Z,13.13
2023-01-28T09:17:29.385Z,9.75
2023-01-28T09:20:01.851Z,3.60
2023-01-28T09:22:34.550Z,4.35
2023-01-28T09:25:08.446Z,7.40
2023-01-28T09:27:42.755Z,5.97
2023-01-28T09:30:16.972Z,3.70
2023-01-28T09:32:56.584Z,7.45
2023-01-28T09:35:30.417Z,13.95
2023-01-28T09:38:04.050Z,12.02
2023-01-28T09:40:40.929Z,17.05
2023-01-28T09:43:31.390Z,11.52
2023-01-28T09:46:07.405Z,13.55
2023-01-28T09:48:44.817Z,10.32
2023-01-28T09:51:30.126Z,4.35
2023-01-28T09:54:08.014Z,15.63
2023-01-28T09:56:45.152Z,30.42
2023-01-28T09:59:25.429Z,8.93
2023-01-28T10:02:03.208Z,7.60
2023-01-28T10:04:59.368Z,5.25
2023-01-28T10:07:44.533Z,5.72
2023-01-28T10:10:19.755Z,4.45
2023-01-28T10:13:07.340Z,5.07
2023-01-28T10:16:13.051Z,4.35
2023-01-28T10:18:50.947Z,4.40
2023-01-28T10:21:30.457Z,4.45
2023-01-28T10:24:07.183Z,5.65
2023-01-28T10:26:41.939Z,5.38
2023-01-28T10:29:20.509Z,3.70
2023-01-28T10:31:57.509Z,3.60
2023-01-28T10:34:29.146Z,8.68
2023-01-28T10:37:05.136Z,6.40
2023-01-28T10:39:37.721Z,5.63
2023-01-28T10:42:21.005Z,6.20
2023-01-28T10:44:54.411Z,7.90
2023-01-28T10:47:35.752Z,5.40
2023-01-28T10:50:09.739Z,3.85
2023-01-28T10:52:42.968Z,5.47
2023-01-28T10:55:19.187Z,4.63
2023-01-28T10:57:51.556Z,4.47
2023-01-28T11:00:32.464Z,3.92
2023-01-28T11:03:04.529Z,5.07
2023-01-28T11:05:36.210Z,4.43
2023-01-28T11:08:16.316Z,3.30
2023-01-28T11:10:48.440Z,4.00
2023-01-28T11:13:22.409Z,3.95
2023-01-28T11:15:56.062Z,4.32
2023-01-28T11:18:30.343Z,3.47
2023-01-28T11:21:03.598Z,3.42
2023-01-28T11:23:40.323Z,3.63
2023-01-28T11:26:19.311Z,3.70
2023-01-28T11:28:51.211Z,5.07
2023-01-28T11:31:25.276Z,3.35
2023-01-28T11:34:00.353Z,3.75
2023-01-28T11:36:33.729Z,6.97
2023-01-28T11:39:21.560Z,5.70
2023-01-28T11:41:54.618Z,6.25
2023-01-28T11:44:27.571Z,5.05
2023-01-28T11:47:18.753Z,4.43
2023-01-28T11:50:09.929Z,4.57
2023-01-28T11:53:06.055Z,10.73
2023-01-28T11:56:13.857Z,4.32
2023-01-28T11:58:56.679Z,3.95
2023-01-28T12:01:38.200Z,4.10
2023-01-28T12:04:24.807Z,4.18
2023-01-28T12:07:06.470Z,3.60
2023-01-28T12:09:49.239Z,4.30
2023-01-28T12:12:41.608Z,8.18
2023-01-28T12:15:35.502Z,9.55
2023-01-28T12:18:21.805Z,6.13
2023-01-28T12:21:01.839Z,4.05
2023-01-28T12:23:52.475Z,4.00
2023-01-28T12:26:36.311Z,3.85
2023-01-28T12:29:25.262Z,3.63
2023-01-28T12:32:10.375Z,5.65
2023-01-28T12:35:08.092Z,3.30
2023-01-28T12:37:51.909Z,4.00
2023-01-28T12:40:41.333Z,12.15
2023-01-28T12:43:18.369Z,19.75
2023-01-28T12:45:57.340Z,33.83
2023-01-28T12:48:35.870Z,10.48
2023-01-28T12:51:13.784Z,4.75
2023-01-28T12:53:50.549Z,8.77
2023-01-28T12:56:24.806Z,3.90
2023-01-28T12:59:00.507Z,4.22
2023-01-28T13:01:40.850Z,11.95
2023-01-28T13:04:17.614Z,9.18
2023-01-28T13:06:52.846Z,11.82
2023-01-28T13:09:27.915Z,20.10
2023-01-28T13:12:02.150Z,9.35
2023-01-28T13:14:38.738Z,13.00
2023-01-28T13:17:28.011Z,30.02
2023-01-28T13:20:00.673Z,21.20
2023-01-28T13:22:35.345Z,27.85
2023-01-28T13:25:29.067Z,18.73
2023-01-28T13:28:03.006Z,6.15
2023-01-28T13:30:36.151Z,11.55
2023-01-28T13:33:30.972Z,4.47
2023-01-28T13:36:05.786Z,4.25
2023-01-28T13:38:37.271Z,3.92
2023-01-28T13:41:08.847Z,4.43
2023-01-28T13:43:41.610Z,4.05
2023-01-28T13:46:15.331Z,4.22
2023-01-28T13:48:53.208Z,4.50
2023-01-28T13:51:29.241Z,4.30
2023-01-28T13:54:04.370Z,4.65
2023-01-28T13:56:44.176Z,4.63
2023-01-28T13:59:40.391Z,4.35
2023-01-28T14:02:37.775Z,4.40
2023-01-28T14:05:40.965Z,4.20
2023-01-28T14:08:40.496Z,4.05
2023-01-28T14:11:33.332Z,3.90
2023-01-28T14:14:31.006Z,4.38
2023-01-28T14:17:06.970Z,3.97
2023-01-28T14:19:41.803Z,3.90
2023-01-28T14:22:14.038Z,3.60
2023-01-28T14:24:47.356Z,4.00
2023-01-28T14:27:21.180Z,4.15
2023-01-28T14:30:07.866Z,4.15
2023-01-28T14:32:49.792Z,4.50
2023-01-28T14:35:25.857Z,4.95
2023-01-28T14:37:57.721Z,4.20
2023-01-28T14:40:36.848Z,4.40
2023-01-28T14:43:22.508Z,4.40
2023-01-28T14:46:19.394Z,43.15
2023-01-28T14:49:14.778Z,9.13
2023-01-28T14:52:16.730Z,4.45
2023-01-28T14:55:10.976Z,4.32
2023-01-28T14:57:58.392Z,4.38
2023-01-28T15:00:33.333Z,4.38
2023-01-28T15:03:24.378Z,4.97
2023-01-28T15:06:16.876Z,4.78
2023-01-28T15:08:53.617Z,6.60
2023-01-28T15:11:27.971Z,4.15
2023-01-28T15:14:20.069Z,4.82
2023-01-28T15:16:56.089Z,6.05
2023-01-28T15:19:32.735Z,6.43
2023-01-28T15:22:08.924Z,10.35
2023-01-28T15:24:43.543Z,7.15
2023-01-28T15:27:26.873Z,5.10
2023-01-28T15:30:01.660Z,5.78
2023-01-28T15:32:35.493Z,4.45
2023-01-28T15:35:15.287Z,3.67
2023-01-28T15:40:24.671Z,4.13
2023-01-28T15:43:00.746Z,4.57
2023-01-28T15:45:57.747Z,4.30
2023-01-28T15:48:33.940Z,3.95
2023-01-28T15:51:07.984Z,4.00
2023-01-28T15:53:45.992Z,4.20
2023-01-28T15:56:29.928Z,4.35
2023-01-28T15:59:14.603Z,3.95
2023-01-28T16:01:47.923Z,3.60
2023-01-28T16:04:31.399Z,3.80
2023-01-28T16:07:07.482Z,3.80
2023-01-28T16:09:40.272Z,4.22
2023-01-28T16:12:19.533Z,4.22
2023-01-28T16:14:55.994Z,4.70
2023-01-28T16:17:35.765Z,3.97
2023-01-28T16:23:44.888Z,3.72
2023-01-28T16:26:26.159Z,4.35
2023-01-28T16:29:12.755Z,3.80
2023-01-28T16:31:44.146Z,4.22
2023-01-28T16:34:32.248Z,4.82
2023-01-28T16:37:08.700Z,6.90
2023-01-28T16:39:42.350Z,4.00
2023-01-28T16:42:14.334Z,5.70
2023-01-28T16:44:45.747Z,5.72
2023-01-28T16:47:18.541Z,3.75
2023-01-28T16:49:58.180Z,3.67
2023-01-28T16:52:30.421Z,4.50
2023-01-28T16:55:04.001Z,3.85
2023-01-28T16:57:41.430Z,4.13
2023-01-28T17:00:19.944Z,3.72
2023-01-28T17:02:51.057Z,3.60
2023-01-28T17:05:32.668Z,3.70
2023-01-28T17:08:03.891Z,3.97
2023-01-28T17:10:40.150Z,5.50
2023-01-28T17:13:12.297Z,4.45
2023-01-28T17:15:43.748Z,3.38
2023-01-28T17:18:16.972Z,3.40
2023-01-28T17:20:50.824Z,3.45
2023-01-28T17:23:29.401Z,3.80
2023-01-28T17:26:05.986Z,3.25
2023-01-28T17:28:38.728Z,3.67
2023-01-28T17:31:13.903Z,3.83
2023-01-28T17:33:58.595Z,4.00
2023-01-28T17:36:32.808Z,3.70
2023-01-28T17:39:07.742Z,3.60
2023-01-28T17:41:39.027Z,3.58
2023-01-28T17:44:20.169Z,3.20
2023-01-28T17:47:13.614Z,3.60
2023-01-28T17:49:48.929Z,3.78
2023-01-28T17:52:22.280Z,3.67
2023-01-28T17:54:54.404Z,4.45
2023-01-28T17:57:31.052Z,3.40
2023-01-28T18:00:03.873Z,3.55
2023-01-28T18:02:36.097Z,3.55
2023-01-28T18:05:11.627Z,4.80
2023-01-28T18:07:45.278Z,4.95
2023-01-28T18:10:23.068Z,3.45
2023-01-28T18:12:56.136Z,3.60
2023-01-28T18:15:32.590Z,3.50
2023-01-28T18:18:04.676Z,3.60
2023-01-28T18:20:44.236Z,4.78
2023-01-28T18:23:28.665Z,3.60
2023-01-28T18:26:03.920Z,3.83
2023-01-28T18:28:36.230Z,6.70
2023-01-28T18:31:12.888Z,4.28
2023-01-28T18:33:44.811Z,3.40
2023-01-28T18:36:16.982Z,3.28
2023-01-28T18:38:50.643Z,3.13
2023-01-28T18:41:33.921Z,3.08
2023-01-28T18:44:05.467Z,4.45
2023-01-28T18:46:41.002Z,4.10
2023-01-28T18:49:15.511Z,4.10
2023-01-28T18:51:47.694Z,3.13
2023-01-28T18:54:22.478Z,3.55
2023-01-28T18:57:11.267Z,5.43
2023-01-28T18:59:48.351Z,3.35
2023-01-28T19:02:19.257Z,3.40
2023-01-28T19:04:49.893Z,6.60
2023-01-28T19:07:23.723Z,3.55
2023-01-28T19:09:55.868Z,3.50
2023-01-28T19:12:26.798Z,3.55
2023-01-28T19:14:58.043Z,3.08
2023-01-28T19:17:29.185Z,3.60
2023-01-28T19:19:59.750Z,3.30
2023-01-28T19:22:30.298Z,3.40
2023-01-28T19:25:02.387Z,3.38
2023-01-28T19:27:33.145Z,3.05
2023-01-28T19:30:06.801Z,3.15
2023-01-28T19:32:37.289Z,3.55
2023-01-28T19:35:11.346Z,3.30
2023-01-28T19:37:41.906Z,3.30
2023-01-28T19:40:17.359Z,4.35
2023-01-28T19:42:49.068Z,3.70
2023-01-28T19:45:20.746Z,5.55
2023-01-28T19:47:51.375Z,3.28
2023-01-28T19:50:22.490Z,3.80
2023-01-28T19:52:52.981Z,3.20
2023-01-28T19:55:27.937Z,6.18
2023-01-28T19:57:59.561Z,3.03
2023-01-28T20:00:30.172Z,3.10
2023-01-28T20:03:00.713Z,3.45
2023-01-28T20:05:31.253Z,4.63
2023-01-28T20:08:02.372Z,3.72
2023-01-28T20:10:35.279Z,5.72
2023-01-28T20:13:08.119Z,6.70
2023-01-28T20:15:42.909Z,3.60
2023-01-28T20:18:13.442Z,4.88
2023-01-28T20:20:54.079Z,3.08
2023-01-28T20:23:25.393Z,3.00
2023-01-28T20:26:03.684Z,4.97
2023-01-28T20:28:34.611Z,3.20
2023-01-28T20:31:08.194Z,5.40
2023-01-28T20:33:39.215Z,4.55
2023-01-28T20:36:11.302Z,3.70
2023-01-28T20:38:43.715Z,3.20
2023-01-28T20:41:18.176Z,3.35
2023-01-28T20:43:49.802Z,3.60
2023-01-28T20:46:23.814Z,3.42
2023-01-28T20:48:57.286Z,4.53
2023-01-28T20:51:29.785Z,3.55
2023-01-28T20:54:01.765Z,4.82
2023-01-28T20:56:34.615Z,3.80
2023-01-28T20:59:07.066Z,4.45
2023-01-28T21:01:38.399Z,4.88
2023-01-28T21:04:10.766Z,4.70
2023-01-28T21:06:41.772Z,3.30
2023-01-28T21:09:12.325Z,4.60
2023-01-28T21:11:44.493Z,3.53
2023-01-28T21:14:17.695Z,3.47
2023-01-28T21:16:48.307Z,4.63
2023-01-28T21:19:21.836Z,3.95
2023-01-28T21:24:37.847Z,3.30
2023-01-28T21:27:10.031Z,3.95
2023-01-28T21:29:40.579Z,4.45
2023-01-28T21:32:11.221Z,4.93
2023-01-28T21:34:41.830Z,3.30
2023-01-28T21:37:12.302Z,6.25
2023-01-28T21:39:42.848Z,4.40
2023-01-28T21:42:15.007Z,8.20
2023-01-28T21:44:45.606Z,3.83
2023-01-28T21:47:16.301Z,5.13
2023-01-28T21:49:46.897Z,2.97
2023-01-28T21:52:17.449Z,9.75
2023-01-28T21:54:47.998Z,5.88
2023-01-28T21:57:20.215Z,7.60
2023-01-28T21:59:49.525Z,6.93
2023-01-28T22:02:22.059Z,10.27
2023-01-28T22:04:53.980Z,9.90
2023-01-28T22:07:25.065Z,2.85
2023-01-28T22:09:55.576Z,2.72
2023-01-28T22:12:28.882Z,2.80
2023-01-28T22:14:59.420Z,5.85
2023-01-28T22:17:30.159Z,4.10
2023-01-28T22:20:00.876Z,6.18
2023-01-28T22:22:31.421Z,9.18
2023-01-28T22:25:02.612Z,13.50
2023-01-28T22:27:34.790Z,3.63
2023-01-28T22:30:05.225Z,7.22
2023-01-28T22:32:35.660Z,11.15
2023-01-28T22:35:06.207Z,10.63
2023-01-28T22:37:36.691Z,32.58
2023-01-28T22:40:07.777Z,18.33
2023-01-28T22:42:39.923Z,22.17
2023-01-28T22:45:11.866Z,12.10
2023-01-28T22:47:42.550Z,7.80
2023-01-28T22:50:14.840Z,15.60
2023-01-28T22:52:45.537Z,20.33
2023-01-28T22:55:16.481Z,11.98
2023-01-28T22:57:48.864Z,22.05
2023-01-28T23:00:19.905Z,9.98
2023-01-28T23:02:50.472Z,25.27
2023-01-28T23:05:24.483Z,41.97
2023-01-28T23:08:11.238Z,18.60
2023-01-28T23:10:48.081Z,7.05
2023-01-28T23:13:21.051Z,34.03
2023-01-28T23:16:09.865Z,12.27
2023-01-28T23:18:58.457Z,7.70
2023-01-28T23:21:48.033Z,4.63
2023-01-28T23:24:23.235Z,3.20
2023-01-28T23:26:55.335Z,5.82
2023-01-28T23:29:28.984Z,3.38
2023-01-28T23:32:02.054Z,5.60
2023-01-28T23:34:35.746Z,7.60
2023-01-28T23:37:07.944Z,4.57
2023-01-28T23:39:39.341Z,4.05
2023-01-28T23:42:15.486Z,8.20
2023-01-28T23:44:47.865Z,4.65
2023-01-28T23:47:18.821Z,6.90
2023-01-28T23:49:49.386Z,7.25
2023-01-28T23:52:20.832Z,4.28
2023-01-28T23:54:51.660Z,4.93
2023-01-28T23:57:22.229Z,4.10
2023-01-28T23:59:54.510Z,4.20
